Time;durP1;ratioP1;P1;durP2;ratioP2;P2;SDS_P1;SDS_P2;PMS_P1;PMS_P2;Temp;Humidity;BMP_temperature;BMP_pressure;BME280_temperature;BME280_humidity;BME280_pressure;Samples;Min_cycle;Max_cycle;Signal;HPM_P1;HPM_P2
2022/07/09 00:00:50;;;;;;;30.90;12.13;;;15.40;99.90;;;;;;5012086;28;20046;-66
2022/07/09 00:03:16;;;;;;;14.70;10.05;;;15.40;99.90;;;;;;5011818;28;20046;-65
2022/07/09 00:05:42;;;;;;;29.35;13.95;;;15.30;99.90;;;;;;5011745;28;20404;-65
2022/07/09 00:08:08;;;;;;;24.00;12.63;;;15.30;99.90;;;;;;4995443;28;20143;-66
2022/07/09 00:10:33;;;;;;;20.98;12.23;;;15.30;99.90;;;;;;5013060;28;20037;-66
2022/07/09 00:12:59;;;;;;;34.20;14.30;;;15.30;99.90;;;;;;5011982;28;20488;-66
2022/07/09 00:15:25;;;;;;;39.72;16.15;;;15.30;99.90;;;;;;4995315;28;20623;-66
2022/07/09 00:17:51;;;;;;;251.88;26.52;;;15.30;99.90;;;;;;5012831;28;20041;-66
2022/07/09 00:20:17;;;;;;;206.48;23.65;;;15.20;99.90;;;;;;5010631;28;20047;-66
2022/07/09 00:22:43;;;;;;;443.88;39.70;;;15.20;99.90;;;;;;5013066;28;20045;-66
2022/07/09 00:25:09;;;;;;;228.52;22.00;;;15.20;99.90;;;;;;4995479;28;20038;-66
2022/07/09 00:27:35;;;;;;;465.60;36.95;;;15.10;99.90;;;;;;5011788;28;20700;-66
2022/07/09 00:30:02;;;;;;;43.83;12.07;;;15.10;99.90;;;;;;5011649;28;20388;-66
2022/07/09 00:32:27;;;;;;;86.53;21.25;;;15.00;99.90;;;;;;5012349;28;20050;-66
2022/07/09 00:34:53;;;;;;;17.52;10.85;;;15.00;99.90;;;;;;5015581;28;20129;-66
2022/07/09 00:37:19;;;;;;;16.05;9.57;;;14.90;99.90;;;;;;5015678;28;20045;-66
2022/07/09 00:39:45;;;;;;;21.80;12.32;;;14.90;99.90;;;;;;5015341;28;20072;-66
2022/07/09 00:42:11;;;;;;;19.65;11.30;;;14.90;99.90;;;;;;5016656;28;20048;-66
2022/07/09 00:44:38;;;;;;;16.75;9.77;;;14.90;99.90;;;;;;4988183;28;20035;-66
2022/07/09 00:47:06;;;;;;;18.95;9.93;;;14.90;99.90;;;;;;4979442;28;20047;-66
2022/07/09 00:49:35;;;;;;;21.25;11.73;;;14.90;99.90;;;;;;4993479;28;20050;-66
2022/07/09 00:52:02;;;;;;;28.20;13.85;;;15.00;99.90;;;;;;4997076;28;20444;-66
2022/07/09 00:54:28;;;;;;;15.77;10.65;;;15.00;99.90;;;;;;4995832;28;20038;-66
2022/07/09 00:56:54;;;;;;;18.55;11.68;;;15.10;99.90;;;;;;4979522;28;20046;-66
2022/07/09 00:59:21;;;;;;;16.77;10.25;;;15.10;99.90;;;;;;4996719;28;20043;-66
2022/07/09 01:01:50;;;;;;;20.40;11.48;;;15.20;99.90;;;;;;4996568;28;20038;-66
2022/07/09 01:04:16;;;;;;;14.38;10.02;;;15.30;99.90;;;;;;4996447;28;20523;-66
2022/07/09 01:06:42;;;;;;;15.88;10.80;;;15.30;99.90;;;;;;4979344;28;20129;-66
2022/07/09 01:09:09;;;;;;;24.25;11.60;;;15.30;99.90;;;;;;4995342;28;20074;-66
2022/07/09 01:11:35;;;;;;;23.20;13.15;;;15.30;99.90;;;;;;4995376;28;20403;-67
2022/07/09 01:14:01;;;;;;;18.75;12.10;;;15.40;99.90;;;;;;4996503;28;20046;-66
2022/07/09 01:16:32;;;;;;;19.15;11.63;;;15.40;99.90;;;;;;4995105;28;20108;-66
2022/07/09 01:18:57;;;;;;;22.20;13.20;;;15.50;99.90;;;;;;4993041;28;20070;-67
2022/07/09 01:21:23;;;;;;;20.65;11.68;;;15.50;99.90;;;;;;4995239;28;20393;-67
2022/07/09 01:23:50;;;;;;;19.67;13.02;;;15.60;99.90;;;;;;4996429;28;20472;-66
2022/07/09 01:26:16;;;;;;;17.63;10.25;;;15.60;99.90;;;;;;4994945;28;20042;-67
2022/07/09 01:28:42;;;;;;;18.75;10.88;;;15.60;99.90;;;;;;4994982;28;20050;-66
2022/07/09 01:31:08;;;;;;;19.42;10.73;;;15.60;99.90;;;;;;4994908;28;20043;-66
2022/07/09 01:33:34;;;;;;;18.25;10.25;;;15.60;99.90;;;;;;4995116;28;20038;-66
2022/07/09 01:35:59;;;;;;;19.02;10.35;;;15.60;99.90;;;;;;4996164;28;20525;-66
2022/07/09 01:38:25;;;;;;;19.00;10.60;;;15.60;99.90;;;;;;4994761;28;20050;-66
2022/07/09 01:40:51;;;;;;;18.08;9.93;;;15.70;99.90;;;;;;4994779;28;20058;-66
2022/07/09 01:43:48;;;;;;;18.05;10.80;;;15.70;99.90;;;;;;4994703;28;20085;-66
2022/07/09 01:46:14;;;;;;;14.52;8.63;;;15.70;99.90;;;;;;4978138;28;20489;-66
2022/07/09 01:48:42;;;;;;;16.95;9.57;;;15.70;99.90;;;;;;4992749;28;20046;-66
2022/07/09 01:51:12;;;;;;;15.15;8.80;;;15.70;99.90;;;;;;4994545;28;20503;-66
2022/07/09 01:53:39;;;;;;;17.88;9.85;;;15.70;99.90;;;;;;4994479;28;20046;-66
2022/07/09 01:56:10;;;;;;;15.27;10.40;;;15.80;99.90;;;;;;4995670;28;20046;-66
2022/07/09 01:58:36;;;;;;;14.25;9.13;;;15.80;99.90;;;;;;4994541;28;20038;-66
2022/07/09 02:01:02;;;;;;;25.42;10.85;;;15.80;99.90;;;;;;4978172;28;20612;-67
2022/07/09 02:03:28;;;;;;;13.00;8.77;;;15.80;99.90;;;;;;4994389;28;20051;-66
2022/07/09 02:05:54;;;;;;;18.55;10.00;;;15.90;99.90;;;;;;4995508;28;20038;-67
2022/07/09 02:08:20;;;;;;;20.10;11.18;;;15.90;99.90;;;;;;4994245;28;20050;-67
2022/07/09 02:10:46;;;;;;;17.30;9.13;;;15.80;99.90;;;;;;4994163;28;20054;-67
2022/07/09 02:13:12;;;;;;;19.92;9.82;;;15.90;99.90;;;;;;4994281;28;20052;-67
2022/07/09 02:15:39;;;;;;;16.15;8.35;;;15.80;99.90;;;;;;4994051;28;20049;-68
2022/07/09 02:18:05;;;;;;;18.50;8.77;;;15.80;99.90;;;;;;4992492;28;20050;-67
2022/07/09 02:20:30;;;;;;;19.80;10.85;;;15.80;99.90;;;;;;4994715;28;20065;-68
2022/07/09 02:22:56;;;;;;;19.73;10.60;;;15.80;99.90;;;;;;4977729;28;20053;-68
2022/07/09 02:25:22;;;;;;;14.07;8.85;;;15.80;99.90;;;;;;4993940;28;20050;-68
2022/07/09 02:27:48;;;;;;;18.83;9.80;;;15.80;99.90;;;;;;4995229;28;20044;-67
2022/07/09 02:30:14;;;;;;;17.77;10.68;;;15.80;99.90;;;;;;4995281;28;20101;-67
2022/07/09 02:32:40;;;;;;;17.88;10.45;;;15.80;99.90;;;;;;4995078;28;20560;-68
2022/07/09 02:35:06;;;;;;;18.73;10.18;;;15.80;99.90;;;;;;4977510;28;20121;-67
2022/07/09 02:37:33;;;;;;;30.50;13.18;;;15.80;99.90;;;;;;4994726;28;20061;-67
2022/07/09 02:39:59;;;;;;;20.10;10.50;;;15.80;99.90;;;;;;4994949;28;20073;-67
2022/07/09 02:42:25;;;;;;;19.58;10.70;;;15.90;99.90;;;;;;4993500;28;20038;-67
2022/07/09 02:44:51;;;;;;;20.63;11.88;;;15.90;99.90;;;;;;5006264;28;20100;-67
2022/07/09 02:47:17;;;;;;;24.80;12.90;;;15.90;99.90;;;;;;5013211;28;20053;-67
2022/07/09 02:49:43;;;;;;;21.52;10.88;;;15.90;99.90;;;;;;5012195;28;20443;-67
2022/07/09 02:52:08;;;;;;;31.42;14.82;;;15.90;99.90;;;;;;5012855;28;20387;-67
2022/07/09 02:54:34;;;;;;;22.80;12.63;;;15.90;99.90;;;;;;5013181;28;20104;-67
2022/07/09 02:57:00;;;;;;;35.65;15.02;;;15.90;99.90;;;;;;4996251;28;20516;-67
2022/07/09 02:59:27;;;;;;;20.00;11.50;;;15.90;99.90;;;;;;5014282;28;20126;-67
2022/07/09 03:01:52;;;;;;;23.92;12.38;;;16.00;99.90;;;;;;5013017;28;20048;-68
2022/07/09 03:04:18;;;;;;;32.53;14.38;;;15.90;99.90;;;;;;5013855;28;20046;-68
2022/07/09 03:06:44;;;;;;;44.85;15.35;;;15.90;99.90;;;;;;5013969;28;20088;-68
2022/07/09 03:09:12;;;;;;;41.22;17.00;;;15.80;99.90;;;;;;5012663;28;20054;-68
2022/07/09 03:11:38;;;;;;;27.92;13.63;;;15.80;99.90;;;;;;5013992;28;20057;-68
2022/07/09 03:14:04;;;;;;;18.08;10.35;;;15.70;99.90;;;;;;5012772;28;20048;-68
2022/07/09 03:16:30;;;;;;;41.42;16.52;;;15.70;99.90;;;;;;5012848;28;20108;-68
2022/07/09 03:18:56;;;;;;;16.35;10.25;;;15.70;99.90;;;;;;5011376;28;20088;-68
2022/07/09 03:21:21;;;;;;;33.60;14.73;;;15.60;99.90;;;;;;5012682;28;20550;-68
2022/07/09 03:23:47;;;;;;;21.13;13.48;;;15.60;99.90;;;;;;5013661;28;20400;-69
2022/07/09 03:26:13;;;;;;;31.10;16.05;;;15.60;99.90;;;;;;5012627;28;20099;-69
2022/07/09 03:28:39;;;;;;;28.58;14.88;;;15.60;99.90;;;;;;5012351;28;20675;-69
2022/07/09 03:31:05;;;;;;;39.40;16.23;;;15.60;99.90;;;;;;4996274;28;20140;-69
2022/07/09 03:33:31;;;;;;;24.73;13.82;;;15.50;99.90;;;;;;5012193;28;20519;-69
2022/07/09 03:35:56;;;;;;;40.05;17.42;;;15.50;99.90;;;;;;4996127;28;20041;-68
2022/07/09 03:38:24;;;;;;;29.13;14.32;;;15.50;99.90;;;;;;5012176;28;20465;-69
2022/07/09 03:40:50;;;;;;;40.13;18.02;;;15.50;99.90;;;;;;4996072;28;20034;-69
2022/07/09 03:43:16;;;;;;;57.25;17.83;;;15.40;99.90;;;;;;5013474;28;20453;-69
2022/07/09 03:45:42;;;;;;;29.67;14.82;;;15.40;99.90;;;;;;4992894;28;20113;-69
2022/07/09 03:48:08;;;;;;;27.48;13.15;;;15.40;99.90;;;;;;4991853;28;20393;-70
2022/07/09 03:50:33;;;;;;;21.80;11.43;;;15.40;99.90;;;;;;4993482;28;20105;-70
2022/07/09 03:52:59;;;;;;;27.85;12.07;;;15.40;99.90;;;;;;4993408;28;20085;-70
2022/07/09 03:55:25;;;;;;;23.35;10.82;;;15.40;99.90;;;;;;4992380;28;20050;-70
2022/07/09 03:57:51;;;;;;;28.00;12.98;;;15.40;99.90;;;;;;4992103;28;20133;-70
2022/07/09 04:00:17;;;;;;;16.80;9.85;;;15.40;99.90;;;;;;4992504;28;20080;-70
2022/07/09 04:02:42;;;;;;;18.08;9.73;;;15.40;99.90;;;;;;4991970;28;20125;-69
2022/07/09 04:05:08;;;;;;;32.22;14.02;;;15.30;99.90;;;;;;4993414;28;20105;-71
2022/07/09 04:07:35;;;;;;;22.33;10.48;;;15.40;99.90;;;;;;4991764;28;20045;-70
2022/07/09 04:10:01;;;;;;;20.58;10.60;;;15.40;99.90;;;;;;4992191;28;20054;-70
2022/07/09 04:12:27;;;;;;;18.13;10.98;;;15.40;99.90;;;;;;4992455;28;20049;-70
2022/07/09 04:14:52;;;;;;;26.70;12.30;;;15.40;99.90;;;;;;4992180;28;20047;-71
2022/07/09 04:17:18;;;;;;;16.92;9.18;;;15.40;99.90;;;;;;4992111;28;20412;-70
2022/07/09 04:19:44;;;;;;;21.98;10.90;;;15.40;99.90;;;;;;4991054;28;20042;-71
2022/07/09 04:22:10;;;;;;;17.15;9.48;;;15.50;99.90;;;;;;4993103;28;20081;-71
2022/07/09 04:24:36;;;;;;;17.77;9.30;;;15.50;99.90;;;;;;4993273;28;20050;-70
2022/07/09 04:27:01;;;;;;;21.30;10.30;;;15.60;99.90;;;;;;4992233;28;20034;-70
2022/07/09 04:29:27;;;;;;;19.42;9.90;;;15.60;99.90;;;;;;4992156;28;20050;-71
2022/07/09 04:31:53;;;;;;;21.05;9.27;;;15.70;99.90;;;;;;4991971;28;20380;-70
2022/07/09 04:34:19;;;;;;;17.98;8.65;;;15.70;99.90;;;;;;4993019;28;20042;-70
2022/07/09 04:36:46;;;;;;;19.45;9.65;;;15.70;99.90;;;;;;4993010;28;20158;-70
2022/07/09 04:39:11;;;;;;;14.60;8.05;;;15.80;99.90;;;;;;4992998;28;20054;-70
2022/07/09 04:41:37;;;;;;;16.20;8.82;;;15.80;99.90;;;;;;4993339;28;20042;-70
2022/07/09 04:44:03;;;;;;;19.02;9.32;;;15.90;99.90;;;;;;4981844;28;20073;-70
2022/07/09 04:46:31;;;;;;;17.13;9.13;;;15.90;99.90;;;;;;5011691;28;20045;-70
2022/07/09 04:48:57;;;;;;;15.40;8.57;;;15.90;99.90;;;;;;5010337;28;20052;-69
2022/07/09 04:51:22;;;;;;;18.48;9.98;;;16.00;99.90;;;;;;5011378;28;20042;-69
2022/07/09 04:53:48;;;;;;;20.75;10.95;;;16.00;99.90;;;;;;5012850;28;20040;-70
2022/07/09 04:56:14;;;;;;;17.80;9.43;;;16.00;99.90;;;;;;5011397;28;20506;-69
2022/07/09 04:58:51;;;;;;;17.83;8.52;;;16.00;99.90;;;;;;5012559;28;20048;-69
2022/07/09 05:01:23;;;;;;;15.13;8.30;;;16.00;99.90;;;;;;5011359;28;20042;-70
2022/07/09 05:03:49;;;;;;;13.10;7.93;;;16.10;99.90;;;;;;5011041;28;20097;-69
2022/07/09 05:06:19;;;;;;;16.23;8.98;;;16.10;99.90;;;;;;5012692;28;20435;-69
2022/07/09 05:08:47;;;;;;;13.80;9.27;;;16.10;99.90;;;;;;5011416;28;20049;-69
2022/07/09 05:11:13;;;;;;;12.50;8.02;;;16.10;99.90;;;;;;5011235;28;20053;-69
2022/07/09 05:13:42;;;;;;;12.10;7.78;;;16.20;99.90;;;;;;5011200;28;20057;-69
2022/07/09 05:16:08;;;;;;;13.40;8.45;;;16.20;99.90;;;;;;5012384;28;20050;-69
2022/07/09 05:18:35;;;;;;;14.85;9.10;;;16.20;99.90;;;;;;5009721;28;20077;-68
2022/07/09 05:21:01;;;;;;;18.20;9.30;;;16.30;99.90;;;;;;5014942;28;20435;-69
2022/07/09 05:23:26;;;;;;;15.48;8.10;;;16.30;99.90;;;;;;5016059;28;20045;-69
2022/07/09 05:25:53;;;;;;;14.98;8.95;;;16.30;99.90;;;;;;5014799;28;20030;-68
2022/07/09 05:28:19;;;;;;;13.30;8.27;;;16.40;99.90;;;;;;5014852;28;20041;-68
2022/07/09 05:30:45;;;;;;;16.60;8.57;;;16.50;99.90;;;;;;5014409;28;20049;-68
2022/07/09 05:33:11;;;;;;;17.23;8.90;;;16.60;99.90;;;;;;5014768;28;20049;-67
2022/07/09 05:35:37;;;;;;;11.40;6.70;;;16.70;99.90;;;;;;5014419;28;20253;-67
2022/07/09 05:38:03;;;;;;;11.40;6.38;;;16.70;99.90;;;;;;5015825;28;20151;-67
2022/07/09 05:40:28;;;;;;;13.98;7.00;;;16.80;99.90;;;;;;5014408;28;20038;-67
2022/07/09 05:42:54;;;;;;;8.90;6.28;;;16.90;99.90;;;;;;5014274;28;20046;-67
2022/07/09 05:45:20;;;;;;;10.93;7.43;;;17.00;99.90;;;;;;4997668;28;20162;-66
2022/07/09 05:47:46;;;;;;;9.05;6.07;;;17.00;99.90;;;;;;4995861;28;20034;-67
2022/07/09 05:50:12;;;;;;;9.38;5.82;;;17.10;99.90;;;;;;4992392;28;20053;-66
2022/07/09 05:52:38;;;;;;;9.88;6.40;;;17.10;99.90;;;;;;4996008;28;20043;-66
2022/07/09 05:55:04;;;;;;;9.75;6.50;;;17.20;99.90;;;;;;4995873;28;20035;-66
2022/07/09 05:57:30;;;;;;;9.27;5.55;;;17.20;99.90;;;;;;4994518;28;20046;-66
2022/07/09 05:59:56;;;;;;;11.13;5.43;;;17.20;99.90;;;;;;4995413;28;20049;-66
2022/07/09 06:02:22;;;;;;;11.55;5.43;;;17.20;99.90;;;;;;4994688;28;20038;-66
2022/07/09 06:04:49;;;;;;;8.85;5.78;;;17.20;99.90;;;;;;4995387;28;20137;-66
2022/07/09 06:07:15;;;;;;;7.80;4.72;;;17.30;99.90;;;;;;4995618;28;20142;-66
2022/07/09 06:09:41;;;;;;;9.05;4.68;;;17.30;99.90;;;;;;4995328;28;20049;-66
2022/07/09 06:12:07;;;;;;;12.00;5.55;;;17.30;99.90;;;;;;4995492;28;20125;-66
2022/07/09 06:14:33;;;;;;;9.98;4.95;;;17.40;99.90;;;;;;4995430;28;20117;-66
2022/07/09 06:17:05;;;;;;;6.82;4.55;;;17.40;99.90;;;;;;4994106;28;20495;-66
2022/07/09 06:19:34;;;;;;;8.98;5.00;;;17.40;99.90;;;;;;4991778;28;20046;-66
2022/07/09 06:22:01;;;;;;;7.15;4.30;;;17.50;99.90;;;;;;5005323;28;20459;-66
2022/07/09 06:24:27;;;;;;;7.85;5.00;;;17.60;99.90;;;;;;5033120;28;20107;-66
2022/07/09 06:26:53;;;;;;;6.20;3.92;;;17.60;99.90;;;;;;5033120;28;20045;-66
2022/07/09 06:29:19;;;;;;;10.75;5.10;;;17.70;99.90;;;;;;5032894;28;20052;-66
2022/07/09 06:31:45;;;;;;;7.43;4.63;;;17.70;99.90;;;;;;5032465;28;20045;-62
2022/07/09 06:34:11;;;;;;;9.05;4.15;;;17.80;99.90;;;;;;5034449;28;20092;-62
2022/07/09 06:36:38;;;;;;;6.28;3.85;;;17.80;99.90;;;;;;5033199;28;20037;-62
2022/07/09 06:41:48;;;;;;;5.80;4.38;;;17.90;99.90;;;;;;5032825;28;20084;-62
2022/07/09 06:44:14;;;;;;;5.93;3.55;;;17.90;99.90;;;;;;5025622;28;20073;-63
2022/07/09 06:46:40;;;;;;;6.05;3.75;;;18.00;99.90;;;;;;5014435;28;20038;-62
2022/07/09 06:49:06;;;;;;;6.63;3.65;;;18.10;99.90;;;;;;5010824;28;20041;-63
2022/07/09 06:51:32;;;;;;;7.65;3.50;;;18.20;99.90;;;;;;5014671;28;20048;-62
2022/07/09 06:53:58;;;;;;;6.75;3.85;;;18.30;99.90;;;;;;5032523;28;20069;-63
2022/07/09 06:56:24;;;;;;;8.55;4.38;;;18.30;99.90;;;;;;5022575;28;20073;-63
2022/07/09 06:58:50;;;;;;;6.65;3.30;;;18.40;99.90;;;;;;5012797;28;20046;-63
2022/07/09 07:01:16;;;;;;;5.97;3.53;;;18.50;99.90;;;;;;5019964;28;20095;-62
2022/07/09 07:03:41;;;;;;;5.22;3.30;;;18.50;99.90;;;;;;5033593;28;20107;-63
2022/07/09 07:06:07;;;;;;;6.78;3.08;;;18.70;99.90;;;;;;5032358;28;20434;-63
2022/07/09 07:08:33;;;;;;;6.07;3.20;;;18.70;99.90;;;;;;5022683;28;20042;-63
2022/07/09 07:10:59;;;;;;;5.93;3.00;;;18.80;99.90;;;;;;5013708;28;20038;-63
2022/07/09 07:13:25;;;;;;;5.65;3.40;;;18.80;99.90;;;;;;4996437;28;20396;-62
2022/07/09 07:15:51;;;;;;;4.70;2.90;;;18.80;99.90;;;;;;5012671;28;20054;-63
2022/07/09 07:18:17;;;;;;;6.68;3.40;;;18.80;99.90;;;;;;5011682;28;20484;-63
2022/07/09 07:20:43;;;;;;;10.65;3.70;;;18.80;99.90;;;;;;5013538;28;20036;-63
2022/07/09 07:23:09;;;;;;;6.90;3.55;;;18.80;99.90;;;;;;5012728;28;20046;-63
2022/07/09 07:25:35;;;;;;;5.05;3.25;;;18.80;99.90;;;;;;5012451;28;20427;-63
2022/07/09 07:28:02;;;;;;;5.50;3.75;;;18.90;99.90;;;;;;5012232;28;20438;-63
2022/07/09 07:30:32;;;;;;;4.20;3.25;;;18.90;99.90;;;;;;4995773;28;20563;-63
2022/07/09 07:32:59;;;;;;;6.38;2.92;;;18.90;99.90;;;;;;5012266;28;20560;-63
2022/07/09 07:35:25;;;;;;;6.72;2.78;;;18.90;99.90;;;;;;5013547;28;20036;-63
2022/07/09 07:37:50;;;;;;;4.82;2.65;;;18.90;99.90;;;;;;4995841;28;20136;-63
2022/07/09 07:40:17;;;;;;;7.60;3.03;;;18.80;99.90;;;;;;5012199;28;20046;-63
2022/07/09 07:42:43;;;;;;;8.10;2.45;;;18.70;99.90;;;;;;5011365;28;20100;-63
2022/07/09 07:45:09;;;;;;;5.60;3.13;;;18.70;99.90;;;;;;5007149;28;20065;-63
2022/07/09 07:47:35;;;;;;;4.60;2.13;;;18.60;99.90;;;;;;5013169;28;20502;-63
2022/07/09 07:50:01;;;;;;;5.15;2.40;;;18.60;99.90;;;;;;5007399;28;20046;-63
2022/07/09 07:52:27;;;;;;;5.40;2.55;;;18.60;99.90;;;;;;5026433;28;20495;-63
2022/07/09 07:54:53;;;;;;;5.25;2.50;;;18.60;99.90;;;;;;5031592;28;20049;-62
2022/07/09 07:57:19;;;;;;;3.72;2.25;;;18.50;99.90;;;;;;5031809;28;20041;-63
2022/07/09 07:59:46;;;;;;;6.80;2.50;;;18.60;99.90;;;;;;5031614;28;20041;-62
2022/07/09 08:02:12;;;;;;;5.50;2.40;;;18.60;99.90;;;;;;5032964;28;20037;-63
2022/07/09 08:04:38;;;;;;;9.00;2.30;;;18.60;99.90;;;;;;5015031;28;20571;-63
2022/07/09 08:07:04;;;;;;;6.43;2.10;;;18.70;99.90;;;;;;5032749;28;20094;-63
2022/07/09 08:09:31;;;;;;;4.10;2.28;;;18.80;99.90;;;;;;5031441;28;20045;-63
2022/07/09 08:11:57;;;;;;;7.05;1.98;;;18.90;99.90;;;;;;5031454;28;20041;-63
2022/07/09 08:14:23;;;;;;;4.40;1.88;;;19.00;99.90;;;;;;5032733;28;20176;-63
2022/07/09 08:16:48;;;;;;;5.43;2.35;;;19.10;99.90;;;;;;5032634;28;20049;-63
2022/07/09 08:19:15;;;;;;;5.13;2.10;;;19.10;99.90;;;;;;5012734;28;20041;-63
2022/07/09 08:21:42;;;;;;;6.30;2.10;;;19.30;99.90;;;;;;5031294;28;20077;-63
2022/07/09 08:24:08;;;;;;;7.53;2.20;;;19.40;99.90;;;;;;5031307;28;20484;-63
2022/07/09 08:26:34;;;;;;;4.00;1.83;;;19.60;99.90;;;;;;5032766;28;20048;-63
2022/07/09 08:28:59;;;;;;;5.75;2.10;;;19.90;99.90;;;;;;5015065;28;20436;-63
2022/07/09 08:31:25;;;;;;;4.50;1.75;;;20.10;99.90;;;;;;5032606;28;20557;-63
2022/07/09 08:33:51;;;;;;;5.35;1.67;;;20.20;99.90;;;;;;5031044;28;20128;-62
2022/07/09 08:36:18;;;;;;;4.55;1.95;;;20.30;99.90;;;;;;5032311;28;20041;-63
2022/07/09 08:38:44;;;;;;;2.80;1.90;;;20.30;99.90;;;;;;5032356;28;20040;-64
2022/07/09 08:41:12;;;;;;;3.65;1.98;;;20.30;99.90;;;;;;5014860;28;20040;-63
2022/07/09 08:43:39;;;;;;;4.53;1.95;;;20.40;99.90;;;;;;5012483;28;20092;-64
2022/07/09 08:46:06;;;;;;;3.97;1.90;;;20.50;99.90;;;;;;5012801;28;20049;-63
2022/07/09 08:48:36;;;;;;;6.03;1.58;;;20.50;99.90;;;;;;5009327;28;20123;-63
2022/07/09 08:51:03;;;;;;;3.15;1.60;;;20.40;99.90;;;;;;5012609;28;20114;-63
2022/07/09 08:53:29;;;;;;;4.50;1.52;;;20.40;99.90;;;;;;5012482;28;20407;-63
2022/07/09 08:55:56;;;;;;;3.88;1.27;;;20.40;99.90;;;;;;5015408;28;20361;-64
2022/07/09 08:58:23;;;;;;;7.47;2.08;;;20.40;99.90;;;;;;5014960;28;20128;-63
2022/07/09 09:00:52;;;;;;;5.20;1.98;;;20.30;99.90;;;;;;5015369;28;20038;-63
2022/07/09 09:03:19;;;;;;;5.30;1.70;;;20.10;99.90;;;;;;5015047;28;20058;-63
2022/07/09 09:05:45;;;;;;;3.25;1.42;;;20.20;99.90;;;;;;5015066;28;20046;-63
2022/07/09 09:08:24;;;;;;;6.85;1.35;;;20.40;99.90;;;;;;4998822;28;20049;-62
2022/07/09 09:10:50;;;;;;;5.25;1.55;;;20.50;99.90;;;;;;5016448;28;20136;-64
2022/07/09 09:13:16;;;;;;;5.30;1.52;;;20.60;99.90;;;;;;5016266;28;20169;-63
2022/07/09 09:15:43;;;;;;;5.22;1.48;;;20.70;99.90;;;;;;5016147;28;20053;-63
2022/07/09 09:18:09;;;;;;;3.67;1.67;;;20.60;99.90;;;;;;5015192;28;20038;-63
2022/07/09 09:20:36;;;;;;;6.47;1.70;;;20.60;99.90;;;;;;5014727;28;20049;-64
2022/07/09 09:23:04;;;;;;;5.07;1.70;;;20.60;99.90;;;;;;5014669;28;20068;-63
2022/07/09 09:25:31;;;;;;;5.40;1.27;;;20.60;99.90;;;;;;5014641;28;20077;-64
2022/07/09 09:27:58;;;;;;;4.03;1.30;;;20.60;99.90;;;;;;5014578;28;20044;-64
2022/07/09 09:30:26;;;;;;;3.35;1.38;;;20.70;99.90;;;;;;5015919;28;20030;-63
2022/07/09 09:33:00;;;;;;;5.90;1.20;;;20.70;99.90;;;;;;5014682;28;20484;-64
2022/07/09 09:35:32;;;;;;;5.53;1.48;;;20.70;99.90;;;;;;5016050;28;20502;-63
2022/07/09 09:37:58;;;;;;;5.10;1.30;;;20.70;99.90;;;;;;5014559;28;20037;-63
2022/07/09 09:40:25;;;;;;;5.50;1.83;;;20.90;99.90;;;;;;5014391;28;20068;-62
2022/07/09 09:42:56;;;;;;;2.58;1.20;;;21.10;99.90;;;;;;5014435;28;20124;-63
2022/07/09 09:45:22;;;;;;;3.42;1.23;;;21.40;99.90;;;;;;4997579;28;20518;-64
2022/07/09 09:47:50;;;;;;;5.15;1.40;;;21.70;99.90;;;;;;4978399;28;20125;-64
2022/07/09 09:50:24;;;;;;;6.13;1.52;;;22.00;99.90;;;;;;4992429;28;20178;-64
2022/07/09 09:52:52;;;;;;;3.70;1.27;;;22.10;99.90;;;;;;4995745;28;20044;-64
2022/07/09 09:55:20;;;;;;;4.85;1.73;;;21.90;99.90;;;;;;4994485;28;20053;-64
2022/07/09 09:57:46;;;;;;;3.67;1.27;;;22.00;99.90;;;;;;5006461;28;20038;-63
2022/07/09 10:00:14;;;;;;;3.67;1.10;;;22.10;99.90;;;;;;5028104;28;20077;-63
2022/07/09 10:02:44;;;;;;;3.67;1.20;;;22.10;99.90;;;;;;5032062;28;20435;-64
2022/07/09 10:05:10;;;;;;;;;;;21.70;99.90;;;;;;4997040;28;20073;-64
2022/07/09 10:07:37;;;;;;;4.03;0.98;;;21.40;99.90;;;;;;4997369;28;20355;-64
2022/07/09 10:10:06;;;;;;;4.15;1.40;;;21.30;99.90;;;;;;5013485;28;20125;-63
2022/07/09 10:12:37;;;;;;;9.55;1.40;;;21.30;99.90;;;;;;5013839;28;20112;-63
2022/07/09 10:15:26;;;;;;;4.05;1.42;;;21.50;99.90;;;;;;5000352;28;20045;-63
2022/07/09 10:17:53;;;;;;;5.93;1.20;;;21.70;99.90;;;;;;5033361;28;20041;-63
2022/07/09 10:20:31;;;;;;;7.20;1.30;;;21.80;99.90;;;;;;5014627;28;20045;-63
2022/07/09 10:22:57;;;;;;;3.38;1.10;;;21.90;99.90;;;;;;5033279;28;20046;-64
2022/07/09 10:25:41;;;;;;;6.43;1.00;;;22.00;99.90;;;;;;5034660;28;20395;-64
2022/07/09 10:28:16;;;;;;;4.15;1.20;;;21.80;99.90;;;;;;5016599;28;20475;-64
2022/07/09 10:30:41;;;;;;;5.38;1.20;;;21.70;99.90;;;;;;5033507;28;20087;-64
2022/07/09 10:33:07;;;;;;;3.22;1.10;;;21.70;99.90;;;;;;5034383;28;20490;-63
2022/07/09 10:35:44;;;;;;;7.90;1.65;;;21.70;99.90;;;;;;5033024;28;20042;-63
2022/07/09 10:38:11;;;;;;;6.10;1.77;;;21.70;99.90;;;;;;5032942;28;20041;-64
2022/07/09 10:40:48;;;;;;;2.53;1.17;;;21.70;99.90;;;;;;5034254;28;20037;-63
2022/07/09 10:43:14;;;;;;;4.65;2.05;;;21.60;99.90;;;;;;5033047;28;20056;-63
2022/07/09 10:45:45;;;;;;;6.97;2.45;;;21.40;99.90;;;;;;4997553;28;20073;-64
2022/07/09 10:48:15;;;;;;;4.10;1.30;;;21.00;99.90;;;;;;5012124;28;20591;-63
2022/07/09 10:50:48;;;;;;;4.53;1.60;;;20.70;99.90;;;;;;5014010;28;20073;-63
2022/07/09 10:53:14;;;;;;;5.90;1.55;;;20.60;99.90;;;;;;5014158;28;20054;-64
2022/07/09 10:55:47;;;;;;;4.75;1.40;;;20.90;99.90;;;;;;5014308;28;20099;-65
2022/07/09 10:58:17;;;;;;;8.23;1.35;;;21.30;99.90;;;;;;5013251;28;20054;-63
2022/07/09 11:00:43;;;;;;;3.67;1.48;;;21.50;99.90;;;;;;5029533;28;20115;-63
2022/07/09 11:03:09;;;;;;;5.53;2.25;;;21.50;99.90;;;;;;5032053;28;20468;-64
2022/07/09 11:05:44;;;;;;;6.03;2.00;;;21.20;99.90;;;;;;5032378;28;20041;-64
2022/07/09 11:08:10;;;;;;;4.72;1.95;;;20.80;99.90;;;;;;5032289;28;20044;-62
2022/07/09 11:10:37;;;;;;;7.50;1.80;;;20.50;99.90;;;;;;5032135;28;20049;-64
2022/07/09 11:13:06;;;;;;;6.32;2.05;;;20.40;99.90;;;;;;5033637;28;20383;-64
2022/07/09 11:15:33;;;;;;;6.50;1.87;;;20.70;99.90;;;;;;5032398;28;20472;-64
2022/07/09 11:18:02;;;;;;;5.55;2.00;;;21.20;99.90;;;;;;5015600;28;20048;-63
2022/07/09 11:20:30;;;;;;;4.43;1.42;;;21.60;99.90;;;;;;5030112;28;20380;-64
2022/07/09 11:22:59;;;;;;;4.97;1.70;;;21.70;99.90;;;;;;5015762;28;20041;-64
2022/07/09 11:25:26;;;;;;;9.38;1.98;;;21.70;99.90;;;;;;5032319;28;20042;-64
2022/07/09 11:27:55;;;;;;;6.35;1.30;;;21.80;99.90;;;;;;5015663;28;20551;-65
2022/07/09 11:30:21;;;;;;;5.82;2.15;;;21.90;99.90;;;;;;5033447;28;20064;-64
2022/07/09 11:32:47;;;;;;;5.88;1.70;;;22.20;99.90;;;;;;5033520;28;20041;-64
2022/07/09 11:35:26;;;;;;;5.47;1.70;;;22.40;99.90;;;;;;5031847;28;20550;-64
2022/07/09 11:37:52;;;;;;;6.47;1.63;;;22.40;99.90;;;;;;5032143;28;20049;-64
2022/07/09 11:40:19;;;;;;;9.90;1.45;;;22.10;99.90;;;;;;5015241;28;20049;-64
2022/07/09 11:42:45;;;;;;;7.20;2.17;;;22.00;99.90;;;;;;5032014;28;20483;-64
2022/07/09 11:45:11;;;;;;;5.45;1.20;;;22.00;99.90;;;;;;5016581;28;20049;-64
2022/07/09 11:47:39;;;;;;;7.13;1.63;;;22.10;99.90;;;;;;5013426;28;20049;-64
2022/07/09 11:50:14;;;;;;;4.15;1.13;;;22.10;99.90;;;;;;5010914;28;20124;-65
2022/07/09 11:52:49;;;;;;;6.07;1.30;;;22.30;99.90;;;;;;5012195;28;20053;-64
2022/07/09 11:55:28;;;;;;;4.82;1.08;;;22.50;99.90;;;;;;5013153;28;20048;-63
2022/07/09 11:57:56;;;;;;;4.32;1.13;;;22.50;99.90;;;;;;5012239;28;20125;-63
2022/07/09 12:00:27;;;;;;;6.60;0.90;;;22.40;99.90;;;;;;5013092;28;20057;-64
2022/07/09 12:02:53;;;;;;;4.65;1.38;;;22.40;99.90;;;;;;5011946;28;20042;-63
2022/07/09 12:05:26;;;;;;;8.18;1.33;;;22.60;99.90;;;;;;5012116;28;20041;-63
2022/07/09 12:07:52;;;;;;;4.60;1.30;;;22.70;99.90;;;;;;5024235;28;20041;-64
2022/07/09 12:10:32;;;;;;;3.28;0.90;;;22.50;99.90;;;;;;5031449;28;20381;-64
2022/07/09 12:12:58;;;;;;;2.40;0.88;;;22.40;99.90;;;;;;4993429;28;20388;-64
2022/07/09 12:15:25;;;;;;;4.47;0.98;;;22.30;99.90;;;;;;4991897;28;20469;-63
2022/07/09 12:17:56;;;;;;;5.32;1.30;;;22.30;99.90;;;;;;4993119;28;20046;-64
2022/07/09 12:20:23;;;;;;;1.92;0.75;;;22.50;99.90;;;;;;4991138;28;20046;-65
2022/07/09 12:22:50;;;;;;;2.45;0.80;;;22.60;99.90;;;;;;4997446;28;20510;-64
2022/07/09 12:25:16;;;;;;;4.13;1.20;;;22.70;99.90;;;;;;5031438;28;20048;-65
2022/07/09 12:27:42;;;;;;;3.63;1.20;;;22.80;99.90;;;;;;5031215;28;20084;-63
2022/07/09 12:30:08;;;;;;;5.10;1.05;;;22.80;99.90;;;;;;5018444;28;20041;-63
2022/07/09 12:32:34;;;;;;;3.33;0.93;;;22.80;99.90;;;;;;5035018;28;20041;-62
2022/07/09 12:35:01;;;;;;;4.65;1.00;;;22.80;99.90;;;;;;5036482;28;20052;-64
2022/07/09 12:37:27;;;;;;;3.28;0.82;;;22.60;99.90;;;;;;5036489;28;20042;-63
2022/07/09 12:39:53;;;;;;;7.07;1.60;;;22.50;99.90;;;;;;5018658;28;20037;-63